sensor_id;sensor_type;location;lat;lon;timestamp;pressure;altitude;pressure_sealevel;temperature;humidity
71457;BME280;59263;48.160;11.752;2023-02-20T00:01:22;96856.66;;;6.75;100.00
71457;BME280;59263;48.160;11.752;2023-02-20T00:03:48;96852.88;;;6.66;100.00
71457;BME280;59263;48.160;11.752;2023-02-20T00:06:13;96847.56;;;6.69;100.00
71457;BME280;59263;48.160;11.752;2023-02-20T00:08:38;96856.84;;;6.72;100.00
71457;BME280;59263;48.160;11.752;2023-02-20T00:11:05;96827.09;;;6.53;100.00
71457;BME280;59263;48.160;11.752;2023-02-20T00:13:31;96867.22;;;6.70;100.00
71457;BME280;59263;48.160;11.752;2023-02-20T00:15:56;96859.13;;;6.62;100.00
71457;BME280;59263;48.160;11.752;2023-02-20T00:18:21;96866.50;;;6.68;100.00
71457;BME280;59263;48.160;11.752;2023-02-20T00:20:47;96865.47;;;6.71;100.00
71457;BME280;59263;48.160;11.752;2023-02-20T00:23:13;96872.47;;;6.69;100.00
71457;BME280;59263;48.160;11.752;2023-02-20T00:25:38;96860.88;;;6.62;100.00
71457;BME280;59263;48.160;11.752;2023-02-20T00:28:04;96865.91;;;6.63;100.00
71457;BME280;59263;48.160;11.752;2023-02-20T00:30:29;96863.34;;;6.63;100.00
71457;BME280;59263;48.160;11.752;2023-02-20T00:32:55;96852.41;;;6.60;100.00
71457;BME280;59263;48.160;11.752;2023-02-20T00:35:22;96864.00;;;6.67;100.00
71457;BME280;59263;48.160;11.752;2023-02-20T00:37:48;96852.25;;;6.63;100.00
71457;BME280;59263;48.160;11.752;2023-02-20T00:40:15;96862.16;;;6.69;100.00
71457;BME280;59263;48.160;11.752;2023-02-20T00:42:42;96863.81;;;6.70;100.00
71457;BME280;59263;48.160;11.752;2023-02-20T00:45:08;96853.53;;;6.55;100.00
71457;BME280;59263;48.160;11.752;2023-02-20T00:47:34;96862.34;;;6.66;100.00
71457;BME280;59263;48.160;11.752;2023-02-20T00:49:59;96833.25;;;6.51;100.00
71457;BME280;59263;48.160;11.752;2023-02-20T00:52:25;96865.03;;;6.64;100.00
71457;BME280;59263;48.160;11.752;2023-02-20T00:54:50;96836.81;;;6.48;100.00
71457;BME280;59263;48.160;11.752;2023-02-20T00:57:15;96845.81;;;6.55;100.00
71457;BME280;59263;48.160;11.752;2023-02-20T00:59:41;96847.75;;;6.52;100.00
71457;BME280;59263;48.160;11.752;2023-02-20T01:02:06;96849.31;;;6.54;100.00
71457;BME280;59263;48.160;11.752;2023-02-20T01:04:31;96841.97;;;6.48;100.00
71457;BME280;59263;48.160;11.752;2023-02-20T01:06:57;96849.13;;;6.58;100.00
71457;BME280;59263;48.160;11.752;2023-02-20T01:09:22;96842.88;;;6.47;100.00
71457;BME280;59263;48.160;11.752;2023-02-20T01:11:47;96842.88;;;6.47;100.00
71457;BME280;59263;48.160;11.752;2023-02-20T01:14:13;96844.16;;;6.54;100.00
71457;BME280;59263;48.160;11.752;2023-02-20T01:16:46;96848.56;;;6.52;100.00
71457;BME280;59263;48.160;11.752;2023-02-20T01:19:13;96850.41;;;6.50;100.00
71457;BME280;59263;48.160;11.752;2023-02-20T01:21:38;96849.88;;;6.45;100.00
71457;BME280;59263;48.160;11.752;2023-02-20T01:24:03;96836.63;;;6.37;100.00
71457;BME280;59263;48.160;11.752;2023-02-20T01:26:29;96858.41;;;6.46;100.00
71457;BME280;59263;48.160;11.752;2023-02-20T01:28:54;96836.00;;;6.34;100.00
71457;BME280;59263;48.160;11.752;2023-02-20T01:31:19;96832.25;;;6.39;100.00
71457;BME280;59263;48.160;11.752;2023-02-20T01:33:45;96836.63;;;6.37;100.00
71457;BME280;59263;48.160;11.752;2023-02-20T01:36:10;96842.16;;;6.45;100.00
71457;BME280;59263;48.160;11.752;2023-02-20T01:38:37;96848.78;;;6.49;100.00
71457;BME280;59263;48.160;11.752;2023-02-20T01:41:03;96852.88;;;6.52;100.00
71457;BME280;59263;48.160;11.752;2023-02-20T01:43:28;96842.88;;;6.47;100.00
71457;BME280;59263;48.160;11.752;2023-02-20T01:49:10;96845.28;;;6.50;100.00
71457;BME280;59263;48.160;11.752;2023-02-20T01:51:41;96835.63;;;6.40;100.00
71457;BME280;59263;48.160;11.752;2023-02-20T01:54:10;96838.31;;;6.38;100.00
71457;BME280;59263;48.160;11.752;2023-02-20T01:56:38;96846.56;;;6.43;100.00
71457;BME280;59263;48.160;11.752;2023-02-20T01:59:04;96823.44;;;6.29;100.00
71457;BME280;59263;48.160;11.752;2023-02-20T02:01:32;96826.34;;;6.37;100.00
71457;BME280;59263;48.160;11.752;2023-02-20T02:04:00;96833.59;;;6.45;100.00
71457;BME280;59263;48.160;11.752;2023-02-20T02:06:27;96841.25;;;6.46;100.00
71457;BME280;59263;48.160;11.752;2023-02-20T02:08:56;96820.56;;;6.34;100.00
71457;BME280;59263;48.160;11.752;2023-02-20T02:11:26;96832.16;;;6.41;100.00
71457;BME280;59263;48.160;11.752;2023-02-20T02:13:52;96824.53;;;6.39;100.00
71457;BME280;59263;48.160;11.752;2023-02-20T02:16:29;96827.81;;;6.41;100.00
71457;BME280;59263;48.160;11.752;2023-02-20T02:30:06;96834.81;;;6.39;100.00
71457;BME280;59263;48.160;11.752;2023-02-20T02:38:03;96834.28;;;6.34;100.00
71457;BME280;59263;48.160;11.752;2023-02-20T02:46:15;96824.19;;;6.31;100.00
71457;BME280;59263;48.160;11.752;2023-02-20T02:48:50;96829.03;;;6.36;100.00
71457;BME280;59263;48.160;11.752;2023-02-20T02:51:22;96824.72;;;6.36;100.00
71457;BME280;59263;48.160;11.752;2023-02-20T02:54:13;96822.16;;;6.36;100.00
71457;BME280;59263;48.160;11.752;2023-02-20T02:56:42;96824.00;;;6.34;100.00
71457;BME280;59263;48.160;11.752;2023-02-20T02:59:13;96818.09;;;6.32;100.00
71457;BME280;59263;48.160;11.752;2023-02-20T03:01:44;96812.78;;;6.35;100.00
71457;BME280;59263;48.160;11.752;2023-02-20T03:04:11;96828.22;;;6.35;100.00
71457;BME280;59263;48.160;11.752;2023-02-20T03:06:41;96824.88;;;6.33;100.00
71457;BME280;59263;48.160;11.752;2023-02-20T03:09:19;96806.38;;;6.28;100.00
71457;BME280;59263;48.160;11.752;2023-02-20T03:11:50;96828.94;;;6.37;100.00
71457;BME280;59263;48.160;11.752;2023-02-20T03:14:20;96822.88;;;6.38;100.00
71457;BME280;59263;48.160;11.752;2023-02-20T03:17:27;96824.88;;;6.33;100.00
71457;BME280;59263;48.160;11.752;2023-02-20T03:19:56;96817.94;;;6.35;100.00
71457;BME280;59263;48.160;11.752;2023-02-20T03:22:27;96811.31;;;6.31;100.00
71457;BME280;59263;48.160;11.752;2023-02-20T03:24:58;96794.97;;;6.18;100.00
71457;BME280;59263;48.160;11.752;2023-02-20T03:27:36;96797.38;;;6.21;100.00
71457;BME280;59263;48.160;11.752;2023-02-20T03:32:37;96804.97;;;6.22;100.00
71457;BME280;59263;48.160;11.752;2023-02-20T03:35:23;96799.28;;;6.17;100.00
71457;BME280;59263;48.160;11.752;2023-02-20T03:38:09;96806.81;;;6.06;100.00
71457;BME280;59263;48.160;11.752;2023-02-20T03:40:55;96812.22;;;6.01;100.00
71457;BME280;59263;48.160;11.752;2023-02-20T03:43:41;96811.47;;;5.99;100.00
71457;BME280;59263;48.160;11.752;2023-02-20T03:46:12;96808.91;;;5.99;100.00
71457;BME280;59263;48.160;11.752;2023-02-20T03:48:47;96794.91;;;5.89;100.00
71457;BME280;59263;48.160;11.752;2023-02-20T03:51:15;96817.63;;;5.97;100.00
71457;BME280;59263;48.160;11.752;2023-02-20T03:53:42;96799.78;;;5.79;100.00
71457;BME280;59263;48.160;11.752;2023-02-20T03:56:11;96824.53;;;5.80;100.00
71457;BME280;59263;48.160;11.752;2023-02-20T03:58:40;96812.91;;;5.75;100.00
71457;BME280;59263;48.160;11.752;2023-02-20T04:01:08;96826.28;;;5.80;100.00
71457;BME280;59263;48.160;11.752;2023-02-20T04:03:39;96824.00;;;5.75;100.00
71457;BME280;59263;48.160;11.752;2023-02-20T04:06:07;96827.44;;;5.74;100.00
71457;BME280;59263;48.160;11.752;2023-02-20T04:08:41;96839.56;;;5.72;100.00
71457;BME280;59263;48.160;11.752;2023-02-20T04:11:21;96825.69;;;5.61;100.00
71457;BME280;59263;48.160;11.752;2023-02-20T04:13:50;96810.91;;;5.50;100.00
71457;BME280;59263;48.160;11.752;2023-02-20T04:16:17;96823.84;;;5.63;100.00
71457;BME280;59263;48.160;11.752;2023-02-20T04:18:43;96806.94;;;5.44;100.00
71457;BME280;59263;48.160;11.752;2023-02-20T04:21:20;96829.13;;;5.45;100.00
71457;BME280;59263;48.160;11.752;2023-02-20T04:23:51;96825.66;;;5.46;100.00
71457;BME280;59263;48.160;11.752;2023-02-20T04:26:21;96826.56;;;5.45;100.00
71457;BME280;59263;48.160;11.752;2023-02-20T04:28:48;96831.50;;;5.48;100.00
71457;BME280;59263;48.160;11.752;2023-02-20T04:31:15;96832.69;;;5.43;100.00
71457;BME280;59263;48.160;11.752;2023-02-20T04:33:40;96814.00;;;5.25;100.00
71457;BME280;59263;48.160;11.752;2023-02-20T04:36:06;96830.72;;;5.32;100.00
71457;BME280;59263;48.160;11.752;2023-02-20T04:38:31;96822.28;;;5.30;100.00
71457;BME280;59263;48.160;11.752;2023-02-20T04:40:57;96822.63;;;5.24;100.00
71457;BME280;59263;48.160;11.752;2023-02-20T04:43:22;96827.75;;;5.24;100.00
71457;BME280;59263;48.160;11.752;2023-02-20T04:45:48;96835.47;;;5.24;100.00
71457;BME280;59263;48.160;11.752;2023-02-20T04:48:13;96812.13;;;5.13;100.00
71457;BME280;59263;48.160;11.752;2023-02-20T04:50:38;96826.44;;;5.17;100.00
71457;BME280;59263;48.160;11.752;2023-02-20T04:53:05;96827.81;;;5.22;100.00
71457;BME280;59263;48.160;11.752;2023-02-20T04:55:30;96813.34;;;5.21;100.00
71457;BME280;59263;48.160;11.752;2023-02-20T04:57:55;96809.41;;;5.16;100.00
71457;BME280;59263;48.160;11.752;2023-02-20T05:00:24;96807.72;;;5.15;100.00
71457;BME280;59263;48.160;11.752;2023-02-20T05:02:50;96816.03;;;5.20;100.00
71457;BME280;59263;48.160;11.752;2023-02-20T05:05:27;96823.78;;;5.18;100.00
71457;BME280;59263;48.160;11.752;2023-02-20T05:08:05;96824.69;;;5.17;100.00
71457;BME280;59263;48.160;11.752;2023-02-20T05:10:32;96826.72;;;5.12;100.00
71457;BME280;59263;48.160;11.752;2023-02-20T05:12:58;96815.69;;;5.10;100.00
71457;BME280;59263;48.160;11.752;2023-02-20T05:15:24;96803.44;;;4.99;100.00
71457;BME280;59263;48.160;11.752;2023-02-20T05:17:50;96831.66;;;5.15;100.00
71457;BME280;59263;48.160;11.752;2023-02-20T05:20:17;96826.94;;;5.07;100.00
71457;BME280;59263;48.160;11.752;2023-02-20T05:22:44;96804.84;;;4.89;100.00
71457;BME280;59263;48.160;11.752;2023-02-20T05:25:10;96830.75;;;5.00;100.00
71457;BME280;59263;48.160;11.752;2023-02-20T05:27:35;96827.28;;;5.01;100.00
71457;BME280;59263;48.160;11.752;2023-02-20T05:30:01;96818.03;;;4.99;100.00
71457;BME280;59263;48.160;11.752;2023-02-20T05:32:28;96829.69;;;5.04;100.00
71457;BME280;59263;48.160;11.752;2023-02-20T05:34:54;96827.63;;;4.95;100.00
71457;BME280;59263;48.160;11.752;2023-02-20T05:37:20;96826.88;;;4.93;100.00
71457;BME280;59263;48.160;11.752;2023-02-20T05:39:46;96842.69;;;5.01;100.00
71457;BME280;59263;48.160;11.752;2023-02-20T05:42:12;96840.53;;;4.94;100.00
71457;BME280;59263;48.160;11.752;2023-02-20T05:44:37;96840.59;;;4.92;100.00
71457;BME280;59263;48.160;11.752;2023-02-20T05:47:03;96858.06;;;5.01;100.00
71457;BME280;59263;48.160;11.752;2023-02-20T05:49:29;96832.19;;;4.90;100.00
71457;BME280;59263;48.160;11.752;2023-02-20T05:51:56;96849.63;;;4.99;100.00
71457;BME280;59263;48.160;11.752;2023-02-20T05:54:22;96854.44;;;4.90;100.00
71457;BME280;59263;48.160;11.752;2023-02-20T05:56:47;96853.41;;;4.92;100.00
71457;BME280;59263;48.160;11.752;2023-02-20T05:59:17;96838.44;;;4.84;100.00
71457;BME280;59263;48.160;11.752;2023-02-20T06:01:43;96852.69;;;4.90;100.00
71457;BME280;59263;48.160;11.752;2023-02-20T06:04:08;96833.56;;;4.80;100.00
71457;BME280;59263;48.160;11.752;2023-02-20T06:06:39;96855.41;;;4.87;100.00
71457;BME280;59263;48.160;11.752;2023-02-20T06:09:06;96855.91;;;4.78;100.00
71457;BME280;59263;48.160;11.752;2023-02-20T06:11:33;96863.78;;;4.75;100.00
71457;BME280;59263;48.160;11.752;2023-02-20T06:13:58;96874.09;;;4.73;100.00
71457;BME280;59263;48.160;11.752;2023-02-20T06:16:25;96856.13;;;4.57;100.00
71457;BME280;59263;48.160;11.752;2023-02-20T06:18:52;96866.06;;;4.64;100.00
71457;BME280;59263;48.160;11.752;2023-02-20T06:21:18;96878.72;;;4.67;100.00
71457;BME280;59263;48.160;11.752;2023-02-20T06:23:45;96872.44;;;4.72;100.00
71457;BME280;59263;48.160;11.752;2023-02-20T06:26:11;96862.84;;;4.76;100.00
71457;BME280;59263;48.160;11.752;2023-02-20T06:28:37;96860.88;;;4.81;100.00
71457;BME280;59263;48.160;11.752;2023-02-20T06:31:03;96879.41;;;4.86;100.00
71457;BME280;59263;48.160;11.752;2023-02-20T06:33:29;96872.75;;;4.82;100.00
71457;BME280;59263;48.160;11.752;2023-02-20T06:35:55;96878.00;;;4.80;100.00
71457;BME280;59263;48.160;11.752;2023-02-20T06:38:20;96867.81;;;4.79;100.00
71457;BME280;59263;48.160;11.752;2023-02-20T06:40:45;96872.53;;;4.87;100.00
71457;BME280;59263;48.160;11.752;2023-02-20T06:43:11;96866.75;;;4.83;100.00
71457;BME280;59263;48.160;11.752;2023-02-20T06:45:36;96878.59;;;5.01;100.00
71457;BME280;59263;48.160;11.752;2023-02-20T06:48:02;96870.28;;;4.96;100.00
71457;BME280;59263;48.160;11.752;2023-02-20T06:50:27;96873.09;;;5.07;100.00
71457;BME280;59263;48.160;11.752;2023-02-20T06:52:52;96879.31;;;5.03;100.00
71457;BME280;59263;48.160;11.752;2023-02-20T06:55:18;96860.22;;;4.93;100.00
71457;BME280;59263;48.160;11.752;2023-02-20T06:57:43;96862.03;;;4.91;100.00
71457;BME280;59263;48.160;11.752;2023-02-20T07:00:09;96890.81;;;4.96;100.00
71457;BME280;59263;48.160;11.752;2023-02-20T07:02:34;96887.00;;;5.03;100.00
71457;BME280;59263;48.160;11.752;2023-02-20T07:05:01;96884.13;;;5.09;100.00
71457;BME280;59263;48.160;11.752;2023-02-20T07:07:30;96887.75;;;5.21;100.00
71457;BME280;59263;48.160;11.752;2023-02-20T07:09:56;96849.13;;;5.08;100.00
71457;BME280;59263;48.160;11.752;2023-02-20T07:12:24;96889.81;;;5.46;100.00
71457;BME280;59263;48.160;11.752;2023-02-20T07:14:50;96887.47;;;5.57;100.00
71457;BME280;59263;48.160;11.752;2023-02-20T07:17:15;96884.81;;;5.59;100.00
71457;BME280;59263;48.160;11.752;2023-02-20T07:19:40;96887.88;;;5.66;100.00
71457;BME280;59263;48.160;11.752;2023-02-20T07:22:06;96882.91;;;5.63;100.00
71457;BME280;59263;48.160;11.752;2023-02-20T07:24:31;96898.53;;;5.74;100.00
71457;BME280;59263;48.160;11.752;2023-02-20T07:26:56;96891.00;;;5.71;100.00
71457;BME280;59263;48.160;11.752;2023-02-20T07:29:22;96899.84;;;5.81;100.00
71457;BME280;59263;48.160;11.752;2023-02-20T07:31:47;96901.31;;;5.85;100.00
71457;BME280;59263;48.160;11.752;2023-02-20T07:34:13;96892.88;;;5.83;100.00
71457;BME280;59263;48.160;11.752;2023-02-20T07:36:40;96905.97;;;5.94;100.00
71457;BME280;59263;48.160;11.752;2023-02-20T07:39:05;96903.41;;;5.94;100.00
71457;BME280;59263;48.160;11.752;2023-02-20T07:41:31;96903.25;;;5.97;100.00
71457;BME280;59263;48.160;11.752;2023-02-20T07:43:58;96900.66;;;5.97;100.00
71457;BME280;59263;48.160;11.752;2023-02-20T07:46:24;96886.81;;;6.00;100.00
71457;BME280;59263;48.160;11.752;2023-02-20T07:48:49;96897.81;;;6.02;100.00
71457;BME280;59263;48.160;11.752;2023-02-20T07:51:15;96891.88;;;6.01;100.00
71457;BME280;59263;48.160;11.752;2023-02-20T07:53:51;96885.25;;;5.97;100.00
71457;BME280;59263;48.160;11.752;2023-02-20T07:56:20;96875.16;;;5.94;100.00
71457;BME280;59263;48.160;11.752;2023-02-20T07:58:46;96865.34;;;5.85;100.00
71457;BME280;59263;48.160;11.752;2023-02-20T08:01:12;96886.72;;;6.01;100.00
71457;BME280;59263;48.160;11.752;2023-02-20T08:03:38;96867.34;;;5.96;100.00
71457;BME280;59263;48.160;11.752;2023-02-20T08:06:03;96838.38;;;5.78;100.00
71457;BME280;59263;48.160;11.752;2023-02-20T08:08:29;96845.84;;;5.82;100.00
71457;BME280;59263;48.160;11.752;2023-02-20T08:10:55;96869.84;;;5.97;100.00
71457;BME280;59263;48.160;11.752;2023-02-20T08:13:20;96864.88;;;5.94;100.00
71457;BME280;59263;48.160;11.752;2023-02-20T08:15:46;96837.06;;;5.71;100.00
71457;BME280;59263;48.160;11.752;2023-02-20T08:18:12;96844.78;;;5.71;100.00
71457;BME280;59263;48.160;11.752;2023-02-20T08:20:38;96863.06;;;5.80;100.00
71457;BME280;59263;48.160;11.752;2023-02-20T08:23:03;96855.47;;;5.79;100.00
71457;BME280;59263;48.160;11.752;2023-02-20T08:25:30;96858.66;;;6.13;100.00
71457;BME280;59263;48.160;11.752;2023-02-20T08:27:57;96863.81;;;6.41;100.00
71457;BME280;59263;48.160;11.752;2023-02-20T08:30:25;96854.91;;;6.61;100.00
71457;BME280;59263;48.160;11.752;2023-02-20T08:32:52;96855.28;;;6.69;100.00
71457;BME280;59263;48.160;11.752;2023-02-20T08:35:18;96845.63;;;6.59;100.00
71457;BME280;59263;48.160;11.752;2023-02-20T08:37:43;96846.47;;;6.59;100.00
71457;BME280;59263;48.160;11.752;2023-02-20T08:40:09;96814.06;;;6.42;100.00
71457;BME280;59263;48.160;11.752;2023-02-20T08:42:34;96842.69;;;6.65;100.00
71457;BME280;59263;48.160;11.752;2023-02-20T08:45:02;96853.50;;;6.98;100.00
71457;BME280;59263;48.160;11.752;2023-02-20T08:47:27;96826.41;;;7.20;100.00
71457;BME280;59263;48.160;11.752;2023-02-20T08:49:53;96829.84;;;7.60;100.00
71457;BME280;59263;48.160;11.752;2023-02-20T08:52:18;96806.78;;;7.84;100.00
71457;BME280;59263;48.160;11.752;2023-02-20T08:54:45;96833.16;;;8.00;100.00
71457;BME280;59263;48.160;11.752;2023-02-20T08:57:11;96804.31;;;7.95;100.00
71457;BME280;59263;48.160;11.752;2023-02-20T08:59:37;96816.69;;;8.03;100.00
71457;BME280;59263;48.160;11.752;2023-02-20T09:02:03;96819.38;;;8.02;100.00
71457;BME280;59263;48.160;11.752;2023-02-20T09:04:29;96810.91;;;7.99;100.00
71457;BME280;59263;48.160;11.752;2023-02-20T09:06:54;96817.50;;;8.04;100.00
71457;BME280;59263;48.160;11.752;2023-02-20T09:09:19;96804.00;;;7.87;100.00
71457;BME280;59263;48.160;11.752;2023-02-20T09:11:44;96787.38;;;7.66;100.00
71457;BME280;59263;48.160;11.752;2023-02-20T09:14:10;96747.38;;;7.35;100.00
71457;BME280;59263;48.160;11.752;2023-02-20T09:16:35;96759.88;;;7.54;100.00
71457;BME280;59263;48.160;11.752;2023-02-20T09:19:00;96757.59;;;7.62;100.00
71457;BME280;59263;48.160;11.752;2023-02-20T09:21:26;96755.75;;;7.89;100.00
71457;BME280;59263;48.160;11.752;2023-02-20T09:23:54;96790.09;;;8.28;100.00
71457;BME280;59263;48.160;11.752;2023-02-20T09:26:19;96776.66;;;8.23;100.00
71457;BME280;59263;48.160;11.752;2023-02-20T09:28:45;96756.88;;;8.11;100.00
71457;BME280;59263;48.160;11.752;2023-02-20T09:31:10;96784.41;;;8.48;100.00
71457;BME280;59263;48.160;11.752;2023-02-20T09:33:36;96785.28;;;8.73;100.00
71457;BME280;59263;48.160;11.752;2023-02-20T09:36:02;96778.03;;;8.78;100.00
71457;BME280;59263;48.160;11.752;2023-02-20T09:38:27;96779.47;;;8.82;100.00
71457;BME280;59263;48.160;11.752;2023-02-20T09:40:57;96786.19;;;9.09;100.00
71457;BME280;59263;48.160;11.752;2023-02-20T09:43:46;96790.91;;;9.15;100.00
71457;BME280;59263;48.160;11.752;2023-02-20T09:46:21;96772.06;;;9.02;100.00
71457;BME280;59263;48.160;11.752;2023-02-20T09:51:30;96760.13;;;9.12;100.00
71457;BME280;59263;48.160;11.752;2023-02-20T09:54:10;96731.84;;;9.10;100.00
71457;BME280;59263;48.160;11.752;2023-02-20T09:56:42;96732.69;;;9.11;100.00
71457;BME280;59263;48.160;11.752;2023-02-20T10:01:42;96747.53;;;9.20;100.00
71457;BME280;59263;48.160;11.752;2023-02-20T10:04:15;96733.81;;;9.31;100.00
71457;BME280;59263;48.160;11.752;2023-02-20T10:06:44;96737.84;;;9.46;100.00
71457;BME280;59263;48.160;11.752;2023-02-20T10:09:13;96740.81;;;9.64;100.00
71457;BME280;59263;48.160;11.752;2023-02-20T10:15:13;96729.47;;;9.89;100.00
71457;BME280;59263;48.160;11.752;2023-02-20T10:18:15;96736.66;;;10.08;100.00
71457;BME280;59263;48.160;11.752;2023-02-20T10:20:51;96735.81;;;10.18;100.00
71457;BME280;59263;48.160;11.752;2023-02-20T10:26:25;96722.31;;;10.49;100.00
71457;BME280;59263;48.160;11.752;2023-02-20T10:28:51;96719.97;;;10.34;100.00
71457;BME280;59263;48.160;11.752;2023-02-20T10:31:48;96727.00;;;10.21;100.00
71457;BME280;59263;48.160;11.752;2023-02-20T10:34:17;96710.34;;;10.25;100.00
71457;BME280;59263;48.160;11.752;2023-02-20T10:36:50;96726.06;;;10.45;100.00
71457;BME280;59263;48.160;11.752;2023-02-20T10:39:19;96710.16;;;10.60;100.00
71457;BME280;59263;48.160;11.752;2023-02-20T10:41:59;96706.50;;;10.74;100.00
71457;BME280;59263;48.160;11.752;2023-02-20T10:44:50;96696.09;;;10.85;100.00
71457;BME280;59263;48.160;11.752;2023-02-20T10:47:52;96692.94;;;11.14;100.00
71457;BME280;59263;48.160;11.752;2023-02-20T10:50:47;96653.94;;;10.95;100.00
71457;BME280;59263;48.160;11.752;2023-02-20T11:01:33;96675.28;;;10.44;100.00
71457;BME280;59263;48.160;11.752;2023-02-20T11:06:45;96674.56;;;10.41;100.00
71457;BME280;59263;48.160;11.752;2023-02-20T11:09:14;96673.63;;;10.54;100.00
71457;BME280;59263;48.160;11.752;2023-02-20T11:11:41;96662.81;;;10.81;100.00
71457;BME280;59263;48.160;11.752;2023-02-20T11:17:08;96645.28;;;10.84;100.00
71457;BME280;59263;48.160;11.752;2023-02-20T11:19:43;96648.88;;;10.93;100.00
71457;BME280;59263;48.160;11.752;2023-02-20T11:22:09;96641.88;;;11.05;100.00
71457;BME280;59263;48.160;11.752;2023-02-20T11:24:45;96649.53;;;11.06;100.00
71457;BME280;59263;48.160;11.752;2023-02-20T11:27:14;96635.06;;;11.04;100.00
71457;BME280;59263;48.160;11.752;2023-02-20T11:29:47;96622.56;;;11.09;100.00
71457;BME280;59263;48.160;11.752;2023-02-20T11:32:23;96627.53;;;11.43;100.00
71457;BME280;59263;48.160;11.752;2023-02-20T11:37:38;96619.94;;;11.30;100.00
71457;BME280;59263;48.160;11.752;2023-02-20T11:40:13;96612.16;;;11.51;100.00
71457;BME280;59263;48.160;11.752;2023-02-20T11:42:39;96605.16;;;11.72;100.00
71457;BME280;59263;48.160;11.752;2023-02-20T11:45:19;96605.16;;;11.72;100.00
71457;BME280;59263;48.160;11.752;2023-02-20T11:50:49;96606.97;;;11.81;100.00
71457;BME280;59263;48.160;11.752;2023-02-20T11:53:30;96606.38;;;11.99;100.00
71457;BME280;59263;48.160;11.752;2023-02-20T11:56:14;96600.66;;;12.05;100.00
71457;BME280;59263;48.160;11.752;2023-02-20T11:58:42;96591.94;;;12.16;100.00
71457;BME280;59263;48.160;11.752;2023-02-20T12:01:28;96590.72;;;12.20;100.00
71457;BME280;59263;48.160;11.752;2023-02-20T12:03:55;96582.38;;;12.16;100.00
71457;BME280;59263;48.160;11.752;2023-02-20T12:08:59;96572.03;;;12.35;100.00
71457;BME280;59263;48.160;11.752;2023-02-20T12:11:27;96561.94;;;12.42;100.00
71457;BME280;59263;48.160;11.752;2023-02-20T12:13:56;96568.88;;;12.42;100.00
71457;BME280;59263;48.160;11.752;2023-02-20T12:19:16;96569.84;;;12.60;100.00
71457;BME280;59263;48.160;11.752;2023-02-20T12:21:53;96560.56;;;12.67;100.00
71457;BME280;59263;48.160;11.752;2023-02-20T12:46:50;96531.91;;;13.25;100.00
71457;BME280;59263;48.160;11.752;2023-02-20T12:52:46;96515.06;;;13.29;100.00
71457;BME280;59263;48.160;11.752;2023-02-20T12:58:14;96497.41;;;13.33;96.87
71457;BME280;59263;48.160;11.752;2023-02-20T13:00:46;96501.78;;;13.32;100.00
71457;BME280;59263;48.160;11.752;2023-02-20T13:03:17;96491.28;;;13.24;100.00
71457;BME280;59263;48.160;11.752;2023-02-20T13:05:45;96480.03;;;13.34;100.00
71457;BME280;59263;48.160;11.752;2023-02-20T13:08:20;96480.91;;;13.52;100.00
71457;BME280;59263;48.160;11.752;2023-02-20T13:10:58;96484.41;;;13.61;98.58
71457;BME280;59263;48.160;11.752;2023-02-20T13:13:30;96460.72;;;13.64;92.24
71457;BME280;59263;48.160;11.752;2023-02-20T13:16:03;96475.25;;;13.56;100.00
71457;BME280;59263;48.160;11.752;2023-02-20T13:21:15;96457.38;;;13.71;94.67
71457;BME280;59263;48.160;11.752;2023-02-20T13:23:41;96458.94;;;13.64;92.88
71457;BME280;59263;48.160;11.752;2023-02-20T13:28:50;96450.03;;;13.67;94.03
71457;BME280;59263;48.160;11.752;2023-02-20T13:31:22;96444.47;;;13.79;92.21
71457;BME280;59263;48.160;11.752;2023-02-20T14:00:28;96454.00;;;13.89;84.21
71457;BME280;59263;48.160;11.752;2023-02-20T14:02:57;96456.22;;;13.84;81.20
71457;BME280;59263;48.160;11.752;2023-02-20T14:05:30;96462.59;;;13.89;80.60
71457;BME280;59263;48.160;11.752;2023-02-20T14:07:57;96450.00;;;13.94;76.26
71457;BME280;59263;48.160;11.752;2023-02-20T14:12:58;96433.63;;;14.02;77.90
71457;BME280;59263;48.160;11.752;2023-02-20T14:15:26;96434.81;;;14.25;80.92
71457;BME280;59263;48.160;11.752;2023-02-20T14:17:53;96437.31;;;14.53;77.25
71457;BME280;59263;48.160;11.752;2023-02-20T14:20:32;96423.56;;;14.95;73.30
71457;BME280;59263;48.160;11.752;2023-02-20T14:25:31;96418.50;;;15.78;64.36
71457;BME280;59263;48.160;11.752;2023-02-20T14:28:17;96403.69;;;17.55;54.51
71457;BME280;59263;48.160;11.752;2023-02-20T14:30:42;96398.25;;;18.34;49.52
71457;BME280;59263;48.160;11.752;2023-02-20T14:33:20;96392.34;;;18.70;46.66
71457;BME280;59263;48.160;11.752;2023-02-20T14:35:53;96400.88;;;17.65;50.44
71457;BME280;59263;48.160;11.752;2023-02-20T14:38:35;96380.53;;;17.44;50.53
71457;BME280;59263;48.160;11.752;2023-02-20T14:41:19;96389.66;;;17.48;52.72
71457;BME280;59263;48.160;11.752;2023-02-20T14:43:56;96377.50;;;18.09;49.52
71457;BME280;59263;48.160;11.752;2023-02-20T14:46:24;96363.88;;;17.37;50.90
71457;BME280;59263;48.160;11.752;2023-02-20T14:51:30;96389.63;;;16.61;53.93
71457;BME280;59263;48.160;11.752;2023-02-20T14:54:24;96376.78;;;15.94;61.50
71457;BME280;59263;48.160;11.752;2023-02-20T14:56:50;96381.34;;;15.25;66.52
71457;BME280;59263;48.160;11.752;2023-02-20T14:59:27;96384.31;;;15.39;68.77
71457;BME280;59263;48.160;11.752;2023-02-20T15:01:56;96377.84;;;15.59;67.91
71457;BME280;59263;48.160;11.752;2023-02-20T15:04:23;96364.59;;;14.60;77.82
71457;BME280;59263;48.160;11.752;2023-02-20T15:06:51;96373.22;;;14.16;84.93
71457;BME280;59263;48.160;11.752;2023-02-20T15:09:18;96373.66;;;14.29;84.13
71457;BME280;59263;48.160;11.752;2023-02-20T15:11:47;96350.28;;;14.38;83.96